Time;durP1;ratioP1;P1;durP2;ratioP2;P2;SDS_P1;SDS_P2;PMS_P1;PMS_P2;Temp;Humidity;BMP_temperature;BMP_pressure;BME280_temperature;BME280_humidity;BME280_pressure;Samples;Min_cycle;Max_cycle;Signal;HPM_P1;HPM_P2
2021/06/28 00:00:34;;;;;;;;;;;28.10;54.00;;;;;;5117783;27;20351;-55
2021/06/28 00:03:02;;;;;;;;;;;28.10;54.10;;;;;;5132886;27;19923;-54
2021/06/28 00:05:30;;;;;;;;;;;28.10;54.10;;;;;;5133468;27;19927;-51
2021/06/28 00:07:57;;;;;;;;;;;28.20;54.20;;;;;;5135433;27;19923;-53
2021/06/28 00:10:26;;;;;;;;;;;28.10;54.10;;;;;;5131180;27;19932;-49
2021/06/28 00:12:54;;;;;;;;;;;28.10;54.10;;;;;;5132913;27;19976;-55
2021/06/28 00:15:23;;;;;;;;;;;28.10;54.10;;;;;;5117252;27;19931;-56
2021/06/28 00:17:51;;;;;;;;;;;28.10;54.10;;;;;;5134935;27;20006;-51
2021/06/28 00:20:18;;;;;;;;;;;28.10;54.10;;;;;;5134226;27;19923;-51
2021/06/28 00:22:46;;;;;;;;;;;28.10;54.20;;;;;;5133421;27;20291;-53
2021/06/28 00:25:14;;;;;;;;;;;28.10;54.80;;;;;;5134164;27;19923;-55
2021/06/28 00:27:42;;;;;;;;;;;28.10;54.20;;;;;;5123579;27;19980;-55
2021/06/28 00:30:26;;;;;;;;;;;28.10;54.20;;;;;;5134010;27;20280;-57
2021/06/28 00:32:55;;;;;;;;;;;28.10;54.20;;;;;;5099940;28;19928;-51
2021/06/28 00:35:23;;;;;;;;;;;28.10;54.20;;;;;;5116711;27;19990;-55
2021/06/28 00:37:50;;;;;;;;;;;28.10;54.20;;;;;;5132067;27;19927;-54
2021/06/28 00:40:18;;;;;;;;;;;28.10;54.20;;;;;;5131200;27;19923;-55
2021/06/28 00:42:45;;;;;;;;;;;28.10;54.30;;;;;;5133560;27;19924;-53
2021/06/28 00:45:19;;;;;;;;;;;28.10;54.30;;;;;;5122514;27;20585;-57
2021/06/28 00:47:47;;;;;;;;;;;28.10;54.30;;;;;;5111556;27;19958;-53
2021/06/28 00:50:15;;;;;;;;;;;28.10;54.30;;;;;;5121387;27;19924;-53
2021/06/28 00:52:44;;;;;;;;;;;28.10;54.30;;;;;;5125579;27;20042;-56
2021/06/28 00:55:12;;;;;;;;;;;28.10;54.30;;;;;;5131821;27;19924;-57
2021/06/28 00:57:39;;;;;;;;;;;28.10;54.30;;;;;;5132744;27;19923;-53
2021/06/28 01:00:08;;;;;;;;;;;28.10;54.30;;;;;;5133725;27;19925;-53
2021/06/28 01:02:36;;;;;;;;;;;28.10;54.40;;;;;;5132497;27;20356;-54
2021/06/28 01:05:08;;;;;;;;;;;28.10;54.40;;;;;;5133147;27;19927;-52
2021/06/28 01:07:35;;;;;;;;;;;28.00;54.30;;;;;;5131687;27;19923;-53
2021/06/28 01:10:03;;;;;;;;;;;28.00;54.30;;;;;;5131337;27;19977;-57
2021/06/28 01:12:30;;;;;;;;;;;28.00;54.40;;;;;;5132249;27;19935;-55
2021/06/28 01:14:57;;;;;;;;;;;28.10;54.40;;;;;;5131767;27;19924;-53
2021/06/28 01:17:25;;;;;;;;;;;28.00;54.40;;;;;;5132882;27;19968;-55
2021/06/28 01:20:12;;;;;;;;;;;28.00;54.40;;;;;;5131482;27;19923;-54
2021/06/28 01:22:40;;;;;;;;;;;28.00;54.40;;;;;;5129091;27;19977;-55
2021/06/28 01:25:09;;;;;;;;;;;28.00;54.40;;;;;;5116427;27;19927;-54
2021/06/28 01:27:37;;;;;;;;;;;28.00;54.40;;;;;;5128840;27;19923;-54
2021/06/28 01:30:05;;;;;;;;;;;28.00;54.40;;;;;;5116170;27;19924;-53
2021/06/28 01:32:32;;;;;;;;;;;28.00;54.40;;;;;;5132362;27;20337;-55
2021/06/28 01:35:00;;;;;;;;;;;28.00;54.40;;;;;;5114791;27;20003;-53
2021/06/28 01:37:28;;;;;;;;;;;28.00;54.40;;;;;;5113564;28;19927;-53
2021/06/28 01:39:56;;;;;;;;;;;28.00;54.50;;;;;;5113390;28;20384;-56
2021/06/28 01:42:23;;;;;;;;;;;28.00;54.40;;;;;;5132590;27;19968;-53
2021/06/28 01:44:51;;;;;;;;;;;28.00;54.50;;;;;;5123800;27;19987;-53
2021/06/28 01:47:18;;;;;;;;;;;28.00;54.50;;;;;;5113930;28;19924;-57
2021/06/28 01:49:45;;;;;;;;;;;28.00;54.50;;;;;;5130655;27;19972;-53
2021/06/28 01:52:13;;;;;;;;;;;28.00;54.50;;;;;;5116914;28;19968;-55
2021/06/28 01:54:40;;;;;;;;;;;28.00;54.50;;;;;;5128560;27;19935;-56
2021/06/28 01:57:08;;;;;;;;;;;28.00;54.60;;;;;;5132709;27;19923;-56
2021/06/28 01:59:36;;;;;;;;;;;28.00;54.60;;;;;;5129887;28;19923;-55
2021/06/28 02:02:04;;;;;;;;;;;28.00;54.50;;;;;;5130164;28;19924;-56
2021/06/28 02:04:32;;;;;;;;;;;28.00;54.60;;;;;;5131148;28;19927;-57
2021/06/28 02:07:00;;;;;;;;;;;28.00;54.60;;;;;;5092721;28;20372;-53
2021/06/28 02:09:29;;;;;;;;;;;28.00;54.60;;;;;;5115597;28;19923;-53
2021/06/28 02:11:56;;;;;;;;;;;28.00;54.60;;;;;;5123883;28;20358;-55
2021/06/28 02:14:23;;;;;;;;;;;28.00;54.60;;;;;;5127189;28;20019;-56
2021/06/28 02:16:50;;;;;;;;;;;28.00;54.60;;;;;;5131885;28;19934;-55
2021/06/28 02:19:17;;;;;;;;;;;28.00;55.20;;;;;;5130867;28;19943;-55
2021/06/28 02:21:45;;;;;;;;;;;28.00;54.60;;;;;;5133697;27;19924;-57
2021/06/28 02:24:13;;;;;;;;;;;28.00;54.60;;;;;;5135630;27;20031;-55
2021/06/28 02:26:41;;;;;;;;;;;28.00;54.60;;;;;;5135967;27;20289;-56
2021/06/28 02:29:08;;;;;;;;;;;28.00;54.60;;;;;;5120940;27;19966;-56
2021/06/28 02:31:35;;;;;;;;;;;28.00;54.60;;;;;;5136268;27;20002;-56
2021/06/28 02:34:02;;;;;;;;;;;28.00;54.60;;;;;;5133783;27;19924;-55
2021/06/28 02:36:29;;;;;;;;;;;28.00;54.60;;;;;;5119542;27;19973;-54
2021/06/28 02:38:57;;;;;;;;;;;28.00;54.60;;;;;;5137495;27;19950;-57
2021/06/28 02:41:25;;;;;;;;;;;28.00;54.60;;;;;;5136723;27;19924;-56
2021/06/28 02:43:53;;;;;;;;;;;28.00;54.60;;;;;;5135331;27;19974;-55
2021/06/28 02:46:21;;;;;;;;;;;28.00;54.60;;;;;;5134351;27;19969;-57
2021/06/28 02:48:48;;;;;;;;;;;27.90;54.60;;;;;;5133294;27;20002;-57
2021/06/28 02:51:15;;;;;;;;;;;28.00;54.60;;;;;;5133294;27;19966;-57
2021/06/28 02:53:42;;;;;;;;;;;28.00;54.70;;;;;;5134154;27;20018;-55
2021/06/28 02:56:12;;;;;;;;;;;28.00;54.70;;;;;;5134849;27;20021;-54
2021/06/28 02:58:45;;;;;;;;;;;28.00;54.70;;;;;;5134586;27;19972;-54
2021/06/28 03:01:13;;;;;;;;;;;28.00;54.70;;;;;;5134426;27;19965;-53
2021/06/28 03:03:40;;;;;;;;;;;27.90;54.60;;;;;;5133021;27;20017;-57
2021/06/28 03:06:07;;;;;;;;;;;28.00;54.70;;;;;;5134796;27;20367;-56
2021/06/28 03:08:34;;;;;;;;;;;27.90;54.60;;;;;;5125664;27;19924;-58
2021/06/28 03:11:01;;;;;;;;;;;27.90;54.60;;;;;;5126183;27;20002;-55
2021/06/28 03:13:28;;;;;;;;;;;28.00;54.70;;;;;;5110926;28;19959;-55
2021/06/28 03:15:56;;;;;;;;;;;28.00;54.70;;;;;;5118344;27;19924;-55
2021/06/28 03:18:23;;;;;;;;;;;27.90;54.60;;;;;;5124323;27;19966;-57
2021/06/28 03:20:51;;;;;;;;;;;28.00;54.70;;;;;;5135258;27;19927;-57
2021/06/28 03:23:18;;;;;;;;;;;28.00;54.60;;;;;;5134947;27;20006;-53
2021/06/28 03:25:45;;;;;;;;;;;27.90;54.60;;;;;;5135492;27;19923;-54
2021/06/28 03:28:12;;;;;;;;;;;28.00;54.70;;;;;;5128256;27;19974;-55
2021/06/28 03:30:39;;;;;;;;;;;28.00;54.60;;;;;;5134715;27;20004;-54
2021/06/28 03:33:06;;;;;;;;;;;28.00;54.60;;;;;;5132030;27;19930;-58
2021/06/28 03:35:34;;;;;;;;;;;28.00;54.60;;;;;;5133556;27;19980;-56
2021/06/28 03:38:01;;;;;;;;;;;28.00;54.60;;;;;;5134471;27;19927;-56
2021/06/28 03:40:32;;;;;;;;;;;28.00;54.60;;;;;;5135478;27;19927;-55
2021/06/28 03:43:03;;;;;;;;;;;28.00;54.60;;;;;;5133793;27;19934;-54
2021/06/28 03:45:30;;;;;;;;;;;28.00;55.10;;;;;;5120068;27;19970;-57
2021/06/28 03:47:57;;;;;;;;;;;28.00;54.50;;;;;;5133000;27;20006;-57
2021/06/28 03:50:24;;;;;;;;;;;28.00;54.50;;;;;;5134529;27;19966;-56
2021/06/28 03:52:51;;;;;;;;;;;28.00;54.40;;;;;;5133910;27;19946;-55
2021/06/28 03:55:18;;;;;;;;;;;28.00;54.40;;;;;;5131678;27;19923;-54
2021/06/28 03:57:45;;;;;;;;;;;28.00;54.40;;;;;;5133944;27;19963;-55
2021/06/28 04:00:17;;;;;;;;;;;28.10;54.50;;;;;;5133390;27;19923;-53
2021/06/28 04:02:45;;;;;;;;;;;28.10;54.40;;;;;;5132896;27;19923;-54
2021/06/28 04:05:14;;;;;;;;;;;28.10;54.30;;;;;;5123056;27;19974;-51
2021/06/28 04:07:42;;;;;;;;;;;28.10;54.30;;;;;;5126354;27;19955;-53
2021/06/28 04:10:12;;;;;;;;;;;28.10;54.30;;;;;;5134298;27;20006;-56
2021/06/28 04:12:39;;;;;;;;;;;28.10;54.30;;;;;;5125248;27;19935;-56
2021/06/28 04:15:09;;;;;;;;;;;28.10;54.30;;;;;;5116204;27;19924;-54
2021/06/28 04:17:38;;;;;;;;;;;28.10;54.30;;;;;;5123592;27;19923;-54
2021/06/28 04:20:08;;;;;;;;;;;28.10;54.20;;;;;;5128959;27;19966;-55
2021/06/28 04:22:35;;;;;;;;;;;28.10;54.30;;;;;;5122086;27;19930;-56
2021/06/28 04:25:04;;;;;;;;;;;28.10;54.20;;;;;;5131435;27;19972;-56
2021/06/28 04:27:31;;;;;;;;;;;28.10;54.20;;;;;;5132403;27;19927;-57
2021/06/28 04:29:59;;;;;;;;;;;28.10;54.20;;;;;;5132484;27;20010;-55
2021/06/28 04:32:26;;;;;;;;;;;28.10;54.20;;;;;;5131271;27;20010;-54
2021/06/28 04:34:54;;;;;;;;;;;28.10;54.20;;;;;;5133458;27;20375;-54
2021/06/28 04:37:25;;;;;;;;;;;28.10;54.20;;;;;;5131277;27;19924;-56
2021/06/28 04:39:52;;;;;;;;;;;28.10;54.20;;;;;;5132869;27;20377;-55
2021/06/28 04:42:19;;;;;;;;;;;28.10;54.20;;;;;;5135093;27;19973;-57
2021/06/28 04:44:46;;;;;;;;;;;28.10;54.20;;;;;;5128016;27;19954;-53
2021/06/28 04:47:13;;;;;;;;;;;28.20;54.20;;;;;;5134491;27;19970;-55
2021/06/28 04:49:39;;;;;;;;;;;28.20;54.00;;;;;;5132838;27;19927;-57
2021/06/28 04:52:07;;;;;;;;;;;28.20;53.90;;;;;;5133871;27;19924;-54
2021/06/28 04:54:34;;;;;;;;;;;28.30;53.90;;;;;;5131202;27;19968;-54
2021/06/28 04:57:01;;;;;;;;;;;28.30;54.40;;;;;;5132633;27;20337;-56
2021/06/28 04:59:28;;;;;;;;;;;28.30;53.70;;;;;;5134175;27;20039;-55
2021/06/28 05:01:55;;;;;;;;;;;28.40;54.30;;;;;;5133212;27;19924;-56
2021/06/28 05:04:22;;;;;;;;;;;28.40;53.60;;;;;;5119598;27;19928;-56
2021/06/28 05:06:49;;;;;;;;;;;28.40;53.50;;;;;;5124909;27;19923;-53
2021/06/28 05:09:16;;;;;;;;;;;28.40;53.40;;;;;;5131914;27;19972;-56
2021/06/28 05:11:43;;;;;;;;;;;28.50;53.40;;;;;;5131626;27;19923;-57
2021/06/28 05:14:11;;;;;;;;;;;28.50;53.40;;;;;;5123713;27;19966;-57
2021/06/28 05:16:38;;;;;;;;;;;28.60;53.40;;;;;;5123646;27;19923;-56
2021/06/28 05:19:05;;;;;;;;;;;28.60;53.40;;;;;;5132973;27;20402;-53
2021/06/28 05:21:36;;;;;;;;;;;28.60;53.30;;;;;;5130157;27;19927;-53
2021/06/28 05:24:03;;;;;;;;;;;28.60;53.30;;;;;;5131676;27;19972;-56
2021/06/28 05:26:30;;;;;;;;;;;28.60;53.30;;;;;;5131929;27;19931;-56
2021/06/28 05:28:57;;;;;;;;;;;28.60;53.30;;;;;;5119722;27;19970;-57
2021/06/28 05:31:25;;;;;;;;;;;28.60;53.20;;;;;;5131200;27;19930;-53
2021/06/28 05:33:53;;;;;;;;;;;28.60;53.20;;;;;;5130407;27;20379;-55
2021/06/28 05:36:20;;;;;;;;;;;28.70;53.30;;;;;;5131405;27;20312;-47
2021/06/28 05:38:47;;;;;;;;;;;28.70;53.30;;;;;;5130635;27;19924;-47
2021/06/28 05:41:15;;;;;;;;;;;28.70;53.30;;;;;;5133963;27;19923;-56
2021/06/28 05:43:43;;;;;;;;;;;28.70;53.20;;;;;;5114518;27;20394;-56
2021/06/28 05:46:10;;;;;;;;;;;28.70;53.20;;;;;;5113610;27;19984;-53
2021/06/28 05:48:37;;;;;;;;;;;28.70;53.20;;;;;;5131539;27;20452;-57
2021/06/28 05:51:04;;;;;;;;;;;28.70;53.20;;;;;;5129183;27;20447;-56
2021/06/28 05:53:32;;;;;;;;;;;28.70;53.20;;;;;;5133642;27;19981;-56
2021/06/28 05:56:00;;;;;;;;;;;28.70;53.20;;;;;;5129806;27;19923;-57
2021/06/28 05:58:28;;;;;;;;;;;28.70;53.20;;;;;;5129762;27;19924;-57
2021/06/28 06:00:56;;;;;;;;;;;28.70;53.20;;;;;;5129716;27;19923;-55
2021/06/28 06:03:23;;;;;;;;;;;28.70;53.20;;;;;;5118598;28;19924;-56
2021/06/28 06:05:52;;;;;;;;;;;28.70;53.20;;;;;;5115112;28;19924;-53
2021/06/28 06:08:23;;;;;;;;;;;28.70;53.20;;;;;;5126273;28;19953;-57
2021/06/28 06:10:54;;;;;;;;;;;28.70;53.20;;;;;;5129843;28;20316;-54
2021/06/28 06:13:22;;;;;;;;;;;28.70;53.20;;;;;;5115119;28;20320;-55
2021/06/28 06:15:49;;;;;;;;;;;28.70;53.20;;;;;;5130954;28;19923;-56
2021/06/28 06:18:16;;;;;;;;;;;28.70;53.20;;;;;;5129918;28;20251;-55
2021/06/28 06:20:44;;;;;;;;;;;28.70;53.20;;;;;;5129535;28;20387;-54
2021/06/28 06:23:12;;;;;;;;;;;28.70;53.20;;;;;;5127362;28;19924;-56
2021/06/28 06:25:39;;;;;;;;;;;28.70;53.20;;;;;;5118655;28;19923;-53
2021/06/28 06:28:06;;;;;;;;;;;28.70;53.20;;;;;;5125405;28;19923;-56
2021/06/28 06:30:33;;;;;;;;;;;28.70;53.30;;;;;;5131742;28;20317;-53
2021/06/28 06:33:02;;;;;;;;;;;28.70;53.30;;;;;;5131457;28;20011;-56
2021/06/28 06:35:29;;;;;;;;;;;28.70;53.30;;;;;;5131705;28;19931;-56
2021/06/28 06:37:57;;;;;;;;;;;28.70;53.30;;;;;;5115422;28;19976;-55
2021/06/28 06:40:24;;;;;;;;;;;28.70;53.30;;;;;;5130529;28;19969;-56
2021/06/28 06:42:53;;;;;;;;;;;28.70;53.30;;;;;;5132442;28;19927;-55
2021/06/28 06:45:21;;;;;;;;;;;28.70;53.30;;;;;;5112118;28;19969;-57
2021/06/28 06:47:48;;;;;;;;;;;28.70;53.40;;;;;;5132904;28;19923;-56
2021/06/28 06:50:16;;;;;;;;;;;28.70;53.40;;;;;;5131046;28;19924;-55
2021/06/28 06:52:46;;;;;;;;;;;28.70;53.40;;;;;;5133410;28;19929;-55
2021/06/28 06:55:13;;;;;;;;;;;28.70;53.40;;;;;;5128999;28;19931;-56
2021/06/28 06:57:40;;;;;;;;;;;28.70;53.40;;;;;;5130668;28;19927;-57
2021/06/28 07:00:10;;;;;;;;;;;28.70;53.40;;;;;;5130941;28;19923;-54
2021/06/28 07:02:37;;;;;;;;;;;28.70;53.40;;;;;;5133027;28;20328;-54
2021/06/28 07:05:04;;;;;;;;;;;28.70;53.40;;;;;;5120013;28;19923;-56
2021/06/28 07:07:31;;;;;;;;;;;28.70;53.40;;;;;;5127694;27;19924;-58
2021/06/28 07:09:58;;;;;;;;;;;28.70;53.40;;;;;;5133226;27;20324;-56
2021/06/28 07:12:25;;;;;;;;;;;28.70;53.40;;;;;;5126607;27;19927;-56
2021/06/28 07:14:53;;;;;;;;;;;28.80;53.50;;;;;;5127200;27;19958;-56
2021/06/28 07:17:20;;;;;;;;;;;28.70;53.40;;;;;;5133913;27;19923;-56
2021/06/28 07:19:47;;;;;;;;;;;28.80;53.50;;;;;;5132748;27;20375;-57
2021/06/28 07:22:15;;;;;;;;;;;28.80;53.50;;;;;;5135659;27;19927;-57
2021/06/28 07:24:42;;;;;;;;;;;28.80;53.50;;;;;;5135171;27;19927;-50
2021/06/28 07:27:09;;;;;;;;;;;28.80;53.50;;;;;;5131637;27;19946;-55
2021/06/28 07:29:36;;;;;;;;;;;28.80;53.50;;;;;;5104513;27;19924;-56
2021/06/28 07:32:03;;;;;;;;;;;28.80;53.50;;;;;;5134865;27;19973;-57
2021/06/28 07:34:31;;;;;;;;;;;28.80;53.50;;;;;;5132230;27;19924;-53
2021/06/28 07:36:58;;;;;;;;;;;28.80;53.50;;;;;;5118392;27;19927;-54
2021/06/28 07:39:25;;;;;;;;;;;28.80;53.50;;;;;;5136383;27;20256;-57
2021/06/28 07:41:52;;;;;;;;;;;28.80;53.50;;;;;;5133593;27;19927;-54
2021/06/28 07:44:22;;;;;;;;;;;28.80;53.50;;;;;;5131526;27;19923;-56
2021/06/28 07:46:49;;;;;;;;;;;28.80;53.50;;;;;;5134191;27;20341;-55
2021/06/28 07:49:16;;;;;;;;;;;28.80;53.50;;;;;;5136531;27;19927;-56
2021/06/28 07:51:43;;;;;;;;;;;28.80;53.50;;;;;;5133516;27;19923;-57
2021/06/28 07:54:15;;;;;;;;;;;28.80;53.50;;;;;;5133396;27;19924;-57
2021/06/28 07:56:42;;;;;;;;;;;28.80;53.50;;;;;;5134663;27;20391;-54
2021/06/28 07:59:09;;;;;;;;;;;28.80;53.50;;;;;;5132963;27;19923;-58
2021/06/28 08:01:36;;;;;;;;;;;28.80;53.50;;;;;;5132283;27;20352;-59
2021/06/28 08:04:03;;;;;;;;;;;28.80;53.50;;;;;;5134878;27;19949;-55
2021/06/28 08:06:30;;;;;;;;;;;28.80;53.50;;;;;;5121951;27;19981;-55
2021/06/28 08:08:57;;;;;;;;;;;28.80;53.60;;;;;;5125504;27;19924;-57
2021/06/28 08:11:25;;;;;;;;;;;28.80;53.50;;;;;;5132901;27;20014;-56
2021/06/28 08:13:53;;;;;;;;;;;28.80;53.50;;;;;;5134304;27;19923;-57
2021/06/28 08:16:21;;;;;;;;;;;28.80;53.50;;;;;;5126254;27;19923;-56
2021/06/28 08:18:49;;;;;;;;;;;28.80;53.50;;;;;;5125589;27;19930;-56
2021/06/28 08:21:34;;;;;;;;;;;28.90;53.60;;;;;;5132543;27;19979;-57
2021/06/28 08:24:02;;;;;;;;;;;28.90;53.60;;;;;;5133247;27;19927;-57
2021/06/28 08:26:29;;;;;;;;;;;28.90;53.60;;;;;;5114480;27;19968;-54
2021/06/28 08:28:56;;;;;;;;;;;28.90;53.60;;;;;;5123285;27;19927;-59
2021/06/28 08:31:24;;;;;;;;;;;28.90;53.60;;;;;;5114747;27;20274;-59
2021/06/28 08:34:09;;;;;;;;;;;28.90;53.60;;;;;;5132640;27;19923;-57
2021/06/28 08:36:36;;;;;;;;;;;28.90;53.60;;;;;;5133878;27;20282;-57
2021/06/28 08:39:04;;;;;;;;;;;28.90;53.50;;;;;;5131935;27;19927;-58
2021/06/28 08:41:32;;;;;;;;;;;28.90;53.60;;;;;;5130041;27;19977;-54
2021/06/28 08:43:59;;;;;;;;;;;28.90;53.60;;;;;;5101717;27;19923;-56
2021/06/28 08:46:26;;;;;;;;;;;28.90;53.60;;;;;;5118636;27;20000;-54
2021/06/28 08:48:53;;;;;;;;;;;28.90;53.60;;;;;;5133322;27;20010;-56
2021/06/28 08:51:20;;;;;;;;;;;28.90;53.60;;;;;;5122973;27;19924;-56
2021/06/28 08:54:03;;;;;;;;;;;28.90;53.60;;;;;;5123745;27;19975;-57
2021/06/28 08:56:30;;;;;;;;;;;28.90;53.60;;;;;;5134149;27;19924;-56
2021/06/28 08:58:58;;;;;;;;;;;28.90;53.60;;;;;;5115179;27;20297;-56
2021/06/28 09:01:26;;;;;;;;;;;28.90;53.60;;;;;;5131722;27;20010;-56
2021/06/28 09:03:53;;;;;;;;;;;28.90;53.60;;;;;;5134285;27;20355;-55
2021/06/28 09:06:24;;;;;;;;;;;28.90;53.60;;;;;;5115283;27;20367;-58
2021/06/28 09:09:03;;;;;;;;;;;29.00;53.60;;;;;;5131481;27;19924;-56
2021/06/28 09:11:34;;;;;;;;;;;28.90;53.60;;;;;;5132435;27;19927;-56
2021/06/28 09:14:02;;;;;;;;;;;29.00;53.60;;;;;;5134682;27;20446;-55
2021/06/28 09:16:30;;;;;;;;;;;29.00;53.60;;;;;;5132586;27;20307;-56
2021/06/28 09:19:05;;;;;;;;;;;29.00;53.60;;;;;;5133298;27;19930;-54
2021/06/28 09:21:37;;;;;;;;;;;29.00;53.60;;;;;;5132349;27;19957;-55
2021/06/28 09:24:06;;;;;;;;;;;29.00;53.60;;;;;;5130671;27;19923;-54
2021/06/28 09:26:35;;;;;;;;;;;29.00;53.70;;;;;;5132773;27;19988;-56
2021/06/28 09:29:04;;;;;;;;;;;29.00;53.60;;;;;;5131880;27;19968;-53
2021/06/28 09:31:36;;;;;;;;;;;29.00;53.70;;;;;;5131145;27;19970;-55
2021/06/28 09:34:08;;;;;;;;;;;29.00;53.60;;;;;;5131824;27;20272;-55
2021/06/28 09:37:01;;;;;;;;;;;29.00;53.60;;;;;;5131923;27;19981;-55
2021/06/28 09:39:33;;;;;;;;;;;29.00;53.60;;;;;;5127077;27;19924;-55
2021/06/28 09:42:06;;;;;;;;;;;29.00;53.70;;;;;;5113446;27;19923;-54
2021/06/28 09:44:34;;;;;;;;;;;29.00;53.60;;;;;;5125778;27;19928;-53
2021/06/28 09:47:14;;;;;;;;;;;29.00;53.70;;;;;;5129522;27;19988;-54
2021/06/28 09:50:00;;;;;;;;;;;29.00;53.70;;;;;;5116939;27;19973;-53
2021/06/28 09:52:31;;;;;;;;;;;29.00;53.70;;;;;;5133179;27;19946;-54
2021/06/28 09:55:18;;;;;;;;;;;29.00;53.70;;;;;;5132555;27;19944;-54
2021/06/28 09:58:09;;;;;;;;;;;29.00;53.70;;;;;;5132665;27;20335;-55
2021/06/28 10:00:38;;;;;;;;;;;29.00;53.70;;;;;;5105929;28;19998;-54
2021/06/28 10:03:25;;;;;;;;;;;29.00;53.70;;;;;;5114783;28;20328;-56
2021/06/28 10:05:59;;;;;;;;;;;29.00;53.70;;;;;;5113421;28;19939;-54
2021/06/28 10:08:30;;;;;;;;;;;29.00;53.70;;;;;;5129942;28;19997;-54
2021/06/28 10:11:08;;;;;;;;;;;29.00;53.70;;;;;;5132030;28;19927;-54
2021/06/28 10:13:36;;;;;;;;;;;29.10;53.70;;;;;;5131802;28;19953;-54
2021/06/28 10:16:03;;;;;;;;;;;29.10;53.70;;;;;;5129716;28;19924;-55
2021/06/28 10:18:30;;;;;;;;;;;29.10;53.70;;;;;;5114313;28;19930;-57
2021/06/28 10:20:58;;;;;;;;;;;29.10;53.70;;;;;;5132852;28;19978;-55
2021/06/28 10:23:25;;;;;;;;;;;29.10;53.70;;;;;;5132624;28;19938;-55
2021/06/28 10:25:52;;;;;;;;;;;29.10;53.70;;;;;;5132139;28;20443;-55
2021/06/28 10:28:19;;;;;;;;;;;29.10;53.70;;;;;;5115338;28;20260;-57
2021/06/28 10:30:47;;;;;;;;;;;29.10;53.70;;;;;;5131946;28;19986;-55
2021/06/28 10:33:17;;;;;;;;;;;29.10;53.70;;;;;;5123440;28;19924;-53
2021/06/28 10:35:44;;;;;;;;;;;29.10;53.70;;;;;;5110091;28;19931;-52
2021/06/28 10:38:13;;;;;;;;;;;29.10;54.20;;;;;;5130399;28;19923;-55
2021/06/28 10:40:45;;;;;;;;;;;29.10;53.70;;;;;;5130273;28;19931;-55
2021/06/28 10:43:26;;;;;;;;;;;29.10;53.70;;;;;;5131146;27;19923;-55
2021/06/28 10:45:53;;;;;;;;;;;29.10;53.70;;;;;;5133736;27;19927;-56
2021/06/28 10:48:21;;;;;;;;;;;29.10;53.70;;;;;;5129961;27;19951;-56
2021/06/28 10:50:59;;;;;;;;;;;29.10;53.60;;;;;;5117914;27;19951;-55
2021/06/28 10:53:32;;;;;;;;;;;29.10;53.60;;;;;;5123434;27;19938;-54
2021/06/28 10:56:27;;;;;;;;;;;29.10;53.60;;;;;;5130283;27;20018;-57
2021/06/28 10:59:01;;;;;;;;;;;29.10;53.60;;;;;;5118918;27;19924;-54
2021/06/28 11:01:45;;;;;;;;;;;29.10;53.60;;;;;;5103910;28;19931;-58
2021/06/28 11:04:21;;;;;;;;;;;29.10;53.60;;;;;;5133852;27;19923;-57
2021/06/28 11:06:52;;;;;;;;;;;29.10;53.60;;;;;;5135514;27;20397;-55
2021/06/28 11:09:34;;;;;;;;;;;29.10;53.60;;;;;;5136708;27;19924;-55
2021/06/28 11:12:03;;;;;;;;;;;29.10;53.60;;;;;;5136283;27;19927;-57
2021/06/28 11:14:30;;;;;;;;;;;29.10;53.60;;;;;;5133411;27;19923;-55
2021/06/28 11:16:58;;;;;;;;;;;29.10;53.60;;;;;;5135152;27;19923;-56
2021/06/28 11:19:46;;;;;;;;;;;29.10;53.60;;;;;;5118876;27;19924;-56
2021/06/28 11:22:33;;;;;;;;;;;29.10;53.60;;;;;;5134371;27;20078;-50
2021/06/28 11:25:00;;;;;;;;;;;29.10;53.50;;;;;;5134471;27;19924;-54
2021/06/28 11:27:27;;;;;;;;;;;29.10;53.50;;;;;;5129197;27;20334;-56
2021/06/28 11:29:55;;;;;;;;;;;29.10;53.50;;;;;;5134008;27;19979;-53
2021/06/28 11:32:25;;;;;;;;;;;29.10;53.50;;;;;;5132498;27;19928;-55
2021/06/28 11:34:52;;;;;;;;;;;29.10;53.40;;;;;;5116662;27;19969;-56
2021/06/28 11:37:19;;;;;;;;;;;29.10;53.40;;;;;;5133394;27;20017;-56
2021/06/28 11:39:54;;;;;;;;;;;29.10;53.40;;;;;;5133794;27;19923;-52
2021/06/28 11:42:23;;;;;;;;;;;29.10;53.40;;;;;;5135866;27;20360;-52
2021/06/28 11:44:52;;;;;;;;;;;29.10;53.40;;;;;;5134229;27;19930;-56
2021/06/28 11:47:39;;;;;;;;;;;29.10;53.40;;;;;;5134855;27;19992;-57
2021/06/28 11:50:38;;;;;;;;;;;29.10;53.40;;;;;;5121855;27;19928;-56
2021/06/28 11:53:07;;;;;;;;;;;29.20;53.50;;;;;;5052397;28;19967;-58
2021/06/28 11:55:37;;;;;;;;;;;29.20;53.40;;;;;;5035414;28;19925;-56
2021/06/28 11:58:04;;;;;;;;;;;29.20;53.40;;;;;;5036350;28;19929;-57
2021/06/28 12:00:48;;;;;;;;;;;29.20;53.40;;;;;;5052772;28;20010;-56
2021/06/28 12:03:24;;;;;;;;;;;29.20;53.30;;;;;;5052392;28;19925;-56
2021/06/28 12:05:52;;;;;;;;;;;29.20;53.30;;;;;;5051584;28;19924;-56
2021/06/28 12:08:23;;;;;;;;;;;29.20;53.30;;;;;;5050956;28;19954;-54
2021/06/28 12:10:54;;;;;;;;;;;29.20;53.30;;;;;;5037180;28;19924;-55
2021/06/28 12:13:31;;;;;;;;;;;29.20;53.30;;;;;;5052356;28;19928;-58
2021/06/28 12:16:14;;;;;;;;;;;29.20;53.30;;;;;;5052414;28;19932;-55
2021/06/28 12:18:41;;;;;;;;;;;29.20;53.30;;;;;;5052301;28;19936;-55
2021/06/28 12:21:09;;;;;;;;;;;29.20;53.30;;;;;;5036707;28;19925;-57
2021/06/28 12:23:36;;;;;;;;;;;29.20;53.20;;;;;;5035930;28;19948;-54
2021/06/28 12:26:13;;;;;;;;;;;29.20;53.20;;;;;;5036128;28;19925;-57
2021/06/28 12:28:40;;;;;;;;;;;29.20;53.20;;;;;;5078631;28;20657;-55
2021/06/28 12:31:16;;;;;;;;;;;29.20;53.20;;;;;;5128075;27;20379;-55
2021/06/28 12:33:43;;;;;;;;;;;29.20;53.30;;;;;;5133281;27;19927;-56
2021/06/28 12:36:17;;;;;;;;;;;29.20;53.30;;;;;;5133175;27;20010;-55
2021/06/28 12:38:44;;;;;;;;;;;29.20;53.30;;;;;;5119545;27;19950;-55
2021/06/28 12:41:11;;;;;;;;;;;29.20;53.20;;;;;;5126447;27;19924;-55
2021/06/28 12:43:39;;;;;;;;;;;29.20;53.20;;;;;;5121437;27;19931;-55
2021/06/28 12:46:06;;;;;;;;;;;29.20;53.20;;;;;;5130354;27;19923;-57
2021/06/28 12:48:33;;;;;;;;;;;29.20;53.20;;;;;;5132123;27;19927;-56
2021/06/28 12:51:03;;;;;;;;;;;29.20;53.20;;;;;;5133480;27;19928;-56
2021/06/28 12:53:30;;;;;;;;;;;29.20;53.20;;;;;;5132210;27;19953;-53
2021/06/28 12:56:04;;;;;;;;;;;29.20;53.20;;;;;;5131078;27;19923;-56
2021/06/28 12:58:44;;;;;;;;;;;29.20;53.20;;;;;;5131727;27;19924;-55
2021/06/28 13:01:11;;;;;;;;;;;29.20;53.20;;;;;;5133509;27;19924;-55
2021/06/28 13:04:15;;;;;;;;;;;29.20;53.20;;;;;;5118441;27;20186;-56
2021/06/28 13:06:42;;;;;;;;;;;29.20;53.20;;;;;;5131764;27;19998;-55
2021/06/28 13:09:16;;;;;;;;;;;29.20;53.20;;;;;;5132854;27;19923;-53
2021/06/28 13:11:59;;;;;;;;;;;29.20;53.10;;;;;;5130754;27;19976;-57
2021/06/28 13:14:28;;;;;;;;;;;29.30;53.20;;;;;;5132082;27;19923;-56
2021/06/28 13:17:16;;;;;;;;;;;29.20;53.20;;;;;;5130633;27;19950;-54
2021/06/28 13:19:44;;;;;;;;;;;29.20;53.10;;;;;;5131802;27;19927;-55
2021/06/28 13:22:11;;;;;;;;;;;29.20;53.10;;;;;;5129905;27;19924;-56
2021/06/28 13:24:38;;;;;;;;;;;29.20;53.10;;;;;;5131430;27;19953;-56
2021/06/28 13:27:12;;;;;;;;;;;29.30;53.10;;;;;;5128780;27;19923;-56
2021/06/28 13:29:41;;;;;;;;;;;29.30;53.10;;;;;;5116013;27;19924;-54
2021/06/28 13:32:08;;;;;;;;;;;29.30;53.10;;;;;;5098876;28;19930;-56
2021/06/28 13:34:39;;;;;;;;;;;29.30;53.10;;;;;;5123724;27;20022;-56
2021/06/28 13:37:18;;;;;;;;;;;29.30;53.10;;;;;;5131555;27;20431;-56
2021/06/28 13:39:47;;;;;;;;;;;29.30;53.10;;;;;;5131613;27;19946;-54
2021/06/28 13:42:20;;;;;;;;;;;29.30;53.10;;;;;;5125699;27;19950;-56
2021/06/28 13:44:53;;;;;;;;;;;29.30;53.10;;;;;;5097273;28;19923;-58
2021/06/28 13:47:20;;;;;;;;;;;29.30;53.00;;;;;;5122476;27;20390;-57
2021/06/28 13:49:47;;;;;;;;;;;29.30;53.00;;;;;;5132498;27;19984;-56
2021/06/28 13:52:15;;;;;;;;;;;29.30;53.00;;;;;;5133695;27;19933;-57
2021/06/28 13:54:41;;;;;;;;;;;29.30;53.00;;;;;;5131048;27;19924;-57
2021/06/28 13:57:09;;;;;;;;;;;29.30;53.00;;;;;;5132605;27;19981;-56
2021/06/28 13:59:36;;;;;;;;;;;29.30;52.90;;;;;;5131488;27;19923;-58
2021/06/28 14:02:03;;;;;;;;;;;29.30;52.90;;;;;;5116000;27;19923;-57
2021/06/28 14:04:32;;;;;;;;;;;29.30;52.90;;;;;;5113340;28;20264;-53
2021/06/28 14:06:59;;;;;;;;;;;29.30;52.90;;;;;;5132095;28;19972;-56
2021/06/28 14:09:26;;;;;;;;;;;29.30;52.90;;;;;;5132442;28;19930;-58
2021/06/28 14:11:53;;;;;;;;;;;29.30;52.90;;;;;;5131258;28;19953;-55
2021/06/28 14:14:20;;;;;;;;;;;29.30;52.90;;;;;;5131120;28;19974;-55
2021/06/28 14:16:47;;;;;;;;;;;29.30;52.90;;;;;;5130269;27;20340;-57
2021/06/28 14:19:14;;;;;;;;;;;29.30;52.90;;;;;;5134208;27;19927;-56
2021/06/28 14:21:41;;;;;;;;;;;29.30;52.90;;;;;;5134241;27;19924;-57
2021/06/28 14:24:08;;;;;;;;;;;29.30;52.90;;;;;;5118494;27;19972;-58
2021/06/28 14:26:35;;;;;;;;;;;29.30;52.90;;;;;;5122947;27;19924;-56
2021/06/28 14:29:03;;;;;;;;;;;29.30;52.90;;;;;;5118259;27;19924;-56